Time;durP1;ratioP1;P1;durP2;ratioP2;P2;SDS_P1;SDS_P2;PMS_P1;PMS_P2;Temp;Humidity;BMP_temperature;BMP_pressure;BME280_temperature;BME280_humidity;BME280_pressure;Samples;Min_cycle;Max_cycle;Signal;HPM_P1;HPM_P2
2021/11/27 00:00:37;;;;;;;45.10;24.65;;;2.60;99.90;;;;;;2055622;28;20039;-68
2021/11/27 00:01:39;;;;;;;45.83;24.13;;;2.60;99.90;;;;;;2055950;28;20070;-68
2021/11/27 00:02:41;;;;;;;44.90;24.27;;;2.60;99.90;;;;;;2056246;28;20037;-69
2021/11/27 00:03:42;;;;;;;41.08;22.60;;;2.60;99.90;;;;;;2056396;28;20042;-68
2021/11/27 00:04:43;;;;;;;44.17;23.50;;;2.60;99.90;;;;;;2056267;28;20118;-70
2021/11/27 00:05:45;;;;;;;40.67;22.73;;;2.60;99.90;;;;;;2056332;28;20031;-69
2021/11/27 00:06:46;;;;;;;41.40;22.38;;;2.50;99.90;;;;;;2056081;28;20038;-68
2021/11/27 00:07:47;;;;;;;42.67;22.65;;;2.50;99.90;;;;;;2056210;28;20109;-69
2021/11/27 00:08:48;;;;;;;41.15;22.23;;;2.50;99.90;;;;;;2056307;28;20034;-68
2021/11/27 00:09:48;;;;;;;42.25;22.67;;;2.50;99.90;;;;;;2055614;28;20105;-67
2021/11/27 00:10:52;;;;;;;40.80;22.70;;;2.50;99.90;;;;;;2055837;28;20045;-68
2021/11/27 00:11:53;;;;;;;45.67;23.27;;;2.50;99.90;;;;;;2055590;28;20059;-68
2021/11/27 00:12:55;;;;;;;39.55;21.63;;;2.50;99.90;;;;;;2056133;28;20051;-68
2021/11/27 00:13:55;;;;;;;42.55;22.30;;;2.50;99.90;;;;;;2056188;28;20023;-68
2021/11/27 00:14:56;;;;;;;41.80;22.42;;;2.50;99.90;;;;;;2056190;28;20778;-68
2021/11/27 00:15:58;;;;;;;46.40;24.92;;;2.50;99.90;;;;;;2055474;28;20031;-64
2021/11/27 00:16:58;;;;;;;47.83;24.35;;;2.50;99.90;;;;;;2055602;28;20027;-66
2021/11/27 00:18:00;;;;;;;44.30;24.27;;;2.50;99.90;;;;;;2056126;28;20042;-68
2021/11/27 00:19:02;;;;;;;48.20;25.98;;;2.50;99.90;;;;;;2056282;28;20058;-67
2021/11/27 00:20:11;;;;;;;66.97;34.67;;;2.50;99.90;;;;;;2056037;28;20482;-66
2021/11/27 00:21:14;;;;;;;61.72;32.33;;;2.50;99.90;;;;;;2054802;28;20124;-66
2021/11/27 00:22:15;;;;;;;57.53;30.52;;;2.50;99.90;;;;;;2048062;28;20039;-66
2021/11/27 00:23:16;;;;;;;54.63;27.70;;;2.50;99.90;;;;;;2055623;28;20074;-66
2021/11/27 00:24:17;;;;;;;52.47;27.88;;;2.50;99.90;;;;;;2056239;28;20085;-66
2021/11/27 00:25:18;;;;;;;47.63;25.38;;;2.60;99.90;;;;;;2056075;28;20026;-67
2021/11/27 00:26:20;;;;;;;50.65;26.70;;;2.60;99.90;;;;;;2055529;28;20492;-66
2021/11/27 00:27:21;;;;;;;47.95;26.02;;;2.60;99.90;;;;;;2055685;28;20034;-66
2021/11/27 00:28:22;;;;;;;47.08;24.92;;;2.60;99.90;;;;;;2055815;28;20601;-70
2021/11/27 00:29:24;;;;;;;46.03;24.45;;;2.60;99.90;;;;;;2056132;28;20403;-68
2021/11/27 00:30:30;;;;;;;44.47;24.42;;;2.60;99.90;;;;;;2055453;28;20085;-69
2021/11/27 00:31:31;;;;;;;46.00;24.88;;;2.60;99.90;;;;;;2055972;28;20081;-69
2021/11/27 00:32:32;;;;;;;48.80;25.17;;;2.60;99.90;;;;;;2047788;28;20019;-69
2021/11/27 00:33:34;;;;;;;48.00;25.65;;;2.60;99.90;;;;;;2040176;28;20492;-69
2021/11/27 00:34:35;;;;;;;46.03;24.27;;;2.60;99.90;;;;;;2056122;28;20134;-69
2021/11/27 00:35:36;;;;;;;46.10;24.42;;;2.60;99.90;;;;;;2056115;28;20514;-69
2021/11/27 00:36:37;;;;;;;45.13;24.60;;;2.60;99.90;;;;;;2056308;28;20027;-68
2021/11/27 00:37:38;;;;;;;46.15;24.52;;;2.60;99.90;;;;;;2057105;28;20027;-69
2021/11/27 00:38:39;;;;;;;47.10;24.80;;;2.70;99.90;;;;;;2057625;28;20093;-69
2021/11/27 00:39:40;;;;;;;44.72;24.10;;;2.60;99.90;;;;;;2057360;28;20128;-70
2021/11/27 00:40:43;;;;;;;45.33;24.00;;;2.60;99.90;;;;;;2047236;28;20035;-70
2021/11/27 00:41:44;;;;;;;44.65;24.88;;;2.60;99.90;;;;;;2047357;28;20028;-70
2021/11/27 00:42:45;;;;;;;48.17;24.98;;;2.60;99.90;;;;;;2055560;28;20534;-70
2021/11/27 00:43:46;;;;;;;44.95;24.60;;;2.60;99.90;;;;;;2055581;28;20031;-70
2021/11/27 00:44:47;;;;;;;45.88;24.42;;;2.60;99.90;;;;;;2056441;28;20079;-68
2021/11/27 00:45:49;;;;;;;47.15;24.48;;;2.60;99.90;;;;;;2055189;28;20039;-68
2021/11/27 00:46:50;;;;;;;48.80;25.70;;;2.60;99.90;;;;;;2055577;28;20039;-69
2021/11/27 00:47:53;;;;;;;53.40;27.02;;;2.50;99.90;;;;;;2047482;28;20416;-69
2021/11/27 00:48:54;;;;;;;53.10;27.08;;;2.50;99.90;;;;;;2040255;28;20076;-69
2021/11/27 00:49:55;;;;;;;49.35;25.30;;;2.50;99.90;;;;;;2047570;28;20557;-69
2021/11/27 00:51:00;;;;;;;49.60;26.40;;;2.50;99.90;;;;;;2047059;29;20027;-69
2021/11/27 00:52:01;;;;;;;50.67;26.95;;;2.40;99.90;;;;;;2055252;28;20030;-70
2021/11/27 00:53:04;;;;;;;58.38;29.23;;;2.40;99.90;;;;;;2056119;28;20033;-69
2021/11/27 00:54:05;;;;;;;56.22;28.83;;;2.40;99.90;;;;;;2055571;28;20121;-68
2021/11/27 00:55:09;;;;;;;60.28;29.75;;;2.30;99.90;;;;;;2047763;29;20039;-68
2021/11/27 00:56:10;;;;;;;61.05;29.23;;;2.30;99.90;;;;;;2047671;28;20134;-69
2021/11/27 00:57:11;;;;;;;55.42;28.55;;;2.30;99.90;;;;;;2047471;28;20600;-70
2021/11/27 00:58:12;;;;;;;56.95;29.00;;;2.20;99.90;;;;;;2055570;28;20082;-71
2021/11/27 00:59:15;;;;;;;57.30;29.60;;;2.20;99.90;;;;;;2055585;28;20443;-70
2021/11/27 01:00:20;;;;;;;57.30;29.63;;;2.20;99.90;;;;;;2039431;29;20043;-68
2021/11/27 01:01:25;;;;;;;57.35;29.67;;;2.20;99.90;;;;;;2040029;28;20038;-68
2021/11/27 01:02:26;;;;;;;59.08;30.58;;;2.10;99.90;;;;;;2047999;28;20033;-68
2021/11/27 01:03:35;;;;;;;59.60;30.20;;;2.10;99.90;;;;;;2048326;28;20447;-69
2021/11/27 01:04:36;;;;;;;57.78;30.00;;;2.10;99.90;;;;;;2055227;28;20054;-69
2021/11/27 01:05:38;;;;;;;59.85;31.02;;;2.10;99.90;;;;;;2055400;28;20030;-70
2021/11/27 01:06:39;;;;;;;59.78;30.25;;;2.10;99.90;;;;;;2047414;28;20023;-70
2021/11/27 01:07:41;;;;;;;57.00;30.30;;;2.10;99.90;;;;;;2047290;28;20066;-70
2021/11/27 01:08:42;;;;;;;56.72;29.23;;;2.00;99.90;;;;;;2047556;28;20130;-70
2021/11/27 01:09:43;;;;;;;57.17;29.52;;;2.00;99.90;;;;;;2055382;28;20031;-69
2021/11/27 01:11:24;;;;;;;56.83;28.95;;;2.10;99.90;;;;;;2039340;29;20036;-68
2021/11/27 01:12:25;;;;;;;58.88;28.52;;;2.00;99.90;;;;;;2049006;28;20068;-67
2021/11/27 01:13:27;;;;;;;56.03;28.10;;;2.00;99.90;;;;;;2047379;29;20031;-69
2021/11/27 01:14:29;;;;;;;54.72;29.08;;;2.00;99.90;;;;;;2047271;28;20063;-69
2021/11/27 01:15:34;;;;;;;57.55;28.52;;;2.00;99.90;;;;;;2047533;28;20054;-68
2021/11/27 01:16:40;;;;;;;55.92;28.17;;;2.00;99.90;;;;;;2055548;28;20124;-68
2021/11/27 01:17:42;;;;;;;54.85;27.45;;;2.00;99.90;;;;;;2055808;28;20113;-67
2021/11/27 01:18:43;;;;;;;53.75;27.48;;;2.00;99.90;;;;;;2055360;28;20058;-69
2021/11/27 01:19:44;;;;;;;57.33;28.95;;;1.90;99.90;;;;;;2055022;28;20082;-66
2021/11/27 01:20:52;;;;;;;56.00;27.73;;;2.00;99.90;;;;;;2055810;28;20038;-67
2021/11/27 01:22:01;;;;;;;56.17;28.63;;;1.90;99.90;;;;;;2048448;28;20038;-70
2021/11/27 01:23:02;;;;;;;55.97;27.77;;;1.90;99.90;;;;;;2043452;28;20526;-65
2021/11/27 01:24:07;;;;;;;53.63;27.13;;;1.80;99.90;;;;;;2048895;28;20031;-65
2021/11/27 01:25:09;;;;;;;54.67;28.13;;;1.80;99.90;;;;;;2049398;28;20081;-67
2021/11/27 01:26:10;;;;;;;55.83;26.95;;;1.80;99.90;;;;;;2048981;28;20031;-65
2021/11/27 01:27:12;;;;;;;54.15;27.17;;;1.80;99.90;;;;;;2048765;28;20035;-65
2021/11/27 01:28:16;;;;;;;51.50;26.27;;;1.70;99.90;;;;;;2055101;28;20050;-66
2021/11/27 01:33:44;;;;;;;57.83;27.50;;;1.60;99.90;;;;;;2055905;28;20475;-71
2021/11/27 01:34:47;;;;;;;55.30;28.83;;;1.50;99.90;;;;;;2056607;28;20034;-71
2021/11/27 01:35:49;;;;;;;55.22;27.75;;;1.50;99.90;;;;;;2057694;28;20533;-72
2021/11/27 01:36:50;;;;;;;55.67;27.25;;;1.50;99.90;;;;;;2049052;28;20134;-72
2021/11/27 01:37:51;;;;;;;57.38;28.20;;;1.50;99.90;;;;;;2050894;28;20042;-72
2021/11/27 01:38:52;;;;;;;56.55;27.98;;;1.50;99.90;;;;;;2049672;28;20032;-72
2021/11/27 01:39:53;;;;;;;58.13;29.25;;;1.50;99.90;;;;;;2050452;28;20133;-72
2021/11/27 01:40:56;;;;;;;60.22;29.30;;;1.50;99.90;;;;;;2050240;28;20070;-72
2021/11/27 01:41:57;;;;;;;60.75;28.98;;;1.50;99.90;;;;;;2050255;28;20020;-73
2021/11/27 01:42:58;;;;;;;62.38;31.42;;;1.50;99.90;;;;;;2049982;28;20468;-72
2021/11/27 01:43:59;;;;;;;57.50;29.02;;;1.50;99.90;;;;;;2049541;28;20191;-73
2021/11/27 01:45:01;;;;;;;56.15;27.75;;;1.50;99.90;;;;;;2049409;28;20177;-72
2021/11/27 01:46:03;;;;;;;62.92;30.73;;;1.40;99.90;;;;;;2057464;28;20070;-73
2021/11/27 01:47:06;;;;;;;56.95;29.17;;;1.40;99.90;;;;;;2049108;28;20783;-73
2021/11/27 01:48:10;;;;;;;59.15;29.80;;;1.40;99.90;;;;;;2048790;28;20078;-72
2021/11/27 01:49:12;;;;;;;57.92;29.08;;;1.40;99.90;;;;;;2049176;28;20085;-72
2021/11/27 01:50:13;;;;;;;59.13;29.15;;;1.40;99.90;;;;;;2049041;28;20141;-73
2021/11/27 01:51:18;;;;;;;59.30;28.20;;;1.40;99.90;;;;;;2049358;28;20062;-73
2021/11/27 01:52:19;;;;;;;59.60;29.90;;;1.40;99.90;;;;;;2048560;28;20549;-71
2021/11/27 01:53:22;;;;;;;56.50;27.58;;;1.40;99.90;;;;;;2048833;28;20023;-72
2021/11/27 01:54:25;;;;;;;56.08;27.65;;;1.40;99.90;;;;;;2049146;28;20035;-73
2021/11/27 01:55:28;;;;;;;56.17;27.58;;;1.40;99.90;;;;;;2056863;28;20031;-73
2021/11/27 01:56:38;;;;;;;55.83;27.67;;;1.30;99.90;;;;;;2049132;28;20110;-72
2021/11/27 01:57:44;;;;;;;57.30;28.13;;;1.40;99.90;;;;;;2056717;28;20533;-72
2021/11/27 01:58:45;;;;;;;55.50;26.63;;;1.40;99.90;;;;;;2049035;28;20533;-72
2021/11/27 01:59:47;;;;;;;54.67;27.17;;;1.40;99.90;;;;;;2040824;29;20541;-72
2021/11/27 02:00:54;;;;;;;57.65;27.58;;;1.30;99.90;;;;;;2041014;28;20098;-73
2021/11/27 02:01:56;;;;;;;52.65;26.58;;;1.30;99.90;;;;;;2048814;28;20531;-73
2021/11/27 02:02:59;;;;;;;56.10;27.77;;;1.30;99.90;;;;;;2056206;28;20137;-72
2021/11/27 02:04:18;;;;;;;53.50;26.73;;;1.30;99.90;;;;;;2050763;28;20039;-72
2021/11/27 02:05:20;;;;;;;51.17;25.85;;;1.30;99.90;;;;;;2056480;28;20066;-72
2021/11/27 02:06:23;;;;;;;52.10;26.67;;;1.30;99.90;;;;;;2056338;28;20574;-72
2021/11/27 02:07:24;;;;;;;51.58;25.80;;;1.30;99.90;;;;;;2056547;28;20030;-71
2021/11/27 02:08:25;;;;;;;54.17;26.92;;;1.20;99.90;;;;;;2057304;28;20086;-71
2021/11/27 02:09:31;;;;;;;50.00;25.90;;;1.30;99.90;;;;;;2056700;28;20906;-71
2021/11/27 02:10:34;;;;;;;50.75;25.23;;;1.30;99.90;;;;;;2049325;28;20019;-72
2021/11/27 02:11:37;;;;;;;48.92;24.75;;;1.30;99.90;;;;;;2047760;28;20115;-71
2021/11/27 02:12:40;;;;;;;51.30;25.17;;;1.30;99.90;;;;;;2041046;29;20030;-71
2021/11/27 02:13:41;;;;;;;47.10;24.55;;;1.30;99.90;;;;;;2041299;28;20035;-73
2021/11/27 02:14:44;;;;;;;49.58;24.73;;;1.30;99.90;;;;;;2049355;28;20019;-73
2021/11/27 02:15:52;;;;;;;46.83;24.73;;;1.30;99.90;;;;;;2057001;28;20085;-73
2021/11/27 02:16:55;;;;;;;48.92;24.13;;;1.30;99.90;;;;;;2049465;28;20066;-73
2021/11/27 02:17:59;;;;;;;48.40;24.20;;;1.30;99.90;;;;;;2049416;28;20024;-73
2021/11/27 02:19:00;;;;;;;46.50;23.95;;;1.30;99.90;;;;;;2057224;28;20037;-73
2021/11/27 02:20:03;;;;;;;44.53;23.13;;;1.30;99.90;;;;;;2056975;28;20469;-73
2021/11/27 02:21:10;;;;;;;45.72;23.60;;;1.30;99.90;;;;;;2057098;28;20050;-75
2021/11/27 02:22:11;;;;;;;45.28;23.35;;;1.20;99.90;;;;;;2048915;28;20031;-75
2021/11/27 02:23:17;;;;;;;46.50;23.38;;;1.20;99.90;;;;;;2048836;29;20473;-74
2021/11/27 02:24:20;;;;;;;47.05;23.98;;;1.20;99.90;;;;;;2049907;28;20035;-74
2021/11/27 02:25:22;;;;;;;45.13;22.98;;;1.10;99.90;;;;;;2057379;28;20034;-73
2021/11/27 02:26:27;;;;;;;43.92;22.80;;;1.20;99.90;;;;;;2056992;28;20035;-75
2021/11/27 02:27:31;;;;;;;43.67;23.02;;;1.10;99.90;;;;;;2056679;28;20383;-74
2021/11/27 02:28:34;;;;;;;46.40;24.08;;;1.10;99.90;;;;;;2056641;28;20038;-74
2021/11/27 02:29:36;;;;;;;48.85;24.08;;;1.10;99.90;;;;;;2049035;28;20015;-74
2021/11/27 02:30:39;;;;;;;48.75;24.55;;;1.10;99.90;;;;;;2040925;28;20043;-74
2021/11/27 02:31:42;;;;;;;50.35;25.40;;;1.10;99.90;;;;;;2048514;28;20023;-75
2021/11/27 02:32:43;;;;;;;48.40;25.05;;;1.10;99.90;;;;;;2056612;28;20094;-74
2021/11/27 02:33:44;;;;;;;48.33;25.58;;;1.10;99.90;;;;;;2056541;28;20429;-74
2021/11/27 02:34:46;;;;;;;47.92;24.70;;;1.10;99.90;;;;;;2048329;28;20498;-74
2021/11/27 02:35:46;;;;;;;44.65;23.63;;;1.20;99.90;;;;;;2048448;28;20151;-74
2021/11/27 02:36:53;;;;;;;44.13;23.30;;;1.10;99.90;;;;;;2040522;28;20023;-74
2021/11/27 02:37:54;;;;;;;42.45;22.70;;;1.10;99.90;;;;;;2049572;28;20049;-74
2021/11/27 02:38:57;;;;;;;43.63;23.63;;;1.10;99.90;;;;;;2056197;28;20030;-74
2021/11/27 02:39:58;;;;;;;46.33;23.60;;;1.20;99.90;;;;;;2048737;28;20035;-74
2021/11/27 02:40:59;;;;;;;45.40;23.33;;;1.10;99.90;;;;;;2048342;29;20035;-75
2021/11/27 02:42:01;;;;;;;44.25;23.55;;;1.10;99.90;;;;;;2039600;28;20597;-74
2021/11/27 02:43:03;;;;;;;45.97;23.67;;;1.10;99.90;;;;;;2040822;28;20110;-74
2021/11/27 02:44:06;;;;;;;44.25;23.40;;;1.10;99.90;;;;;;2048336;28;20130;-74
2021/11/27 02:45:11;;;;;;;46.78;23.58;;;1.10;99.90;;;;;;2048975;28;20035;-73
2021/11/27 02:46:12;;;;;;;43.78;23.60;;;1.10;99.90;;;;;;2056154;28;20106;-74
2021/11/27 02:47:13;;;;;;;45.67;23.85;;;1.00;99.90;;;;;;2056337;28;20035;-73
2021/11/27 02:48:15;;;;;;;45.05;23.88;;;1.00;99.90;;;;;;2048993;28;20043;-74
2021/11/27 02:49:17;;;;;;;43.47;23.52;;;1.00;99.90;;;;;;2048723;28;20534;-75
2021/11/27 02:50:19;;;;;;;41.47;22.75;;;1.00;99.90;;;;;;2056903;28;20077;-76
2021/11/27 02:51:21;;;;;;;45.03;23.52;;;1.00;99.90;;;;;;2056993;28;20027;-75
2021/11/27 02:52:22;;;;;;;47.47;24.13;;;0.90;99.90;;;;;;2048626;28;20052;-75
2021/11/27 02:53:23;;;;;;;45.70;23.98;;;1.00;99.90;;;;;;2056138;28;20027;-74
2021/11/27 02:54:26;;;;;;;46.10;24.05;;;1.00;99.90;;;;;;2048180;28;20070;-73
2021/11/27 02:55:27;;;;;;;43.08;23.50;;;1.00;99.90;;;;;;2048271;28;20061;-73
2021/11/27 02:56:28;;;;;;;46.50;24.00;;;0.90;99.90;;;;;;2048103;28;20054;-74
2021/11/27 02:57:29;;;;;;;45.10;23.48;;;1.00;99.90;;;;;;2040388;28;20436;-75
2021/11/27 02:58:30;;;;;;;47.47;24.10;;;1.00;99.90;;;;;;2048359;28;20035;-72
2021/11/27 02:59:32;;;;;;;50.10;26.20;;;1.00;99.90;;;;;;2056390;28;20026;-73
2021/11/27 03:00:33;;;;;;;45.53;24.40;;;1.00;99.90;;;;;;2048325;28;20031;-73
2021/11/27 03:01:34;;;;;;;47.38;24.58;;;1.00;99.90;;;;;;2047717;28;20568;-76
2021/11/27 03:02:35;;;;;;;46.20;24.00;;;1.00;99.90;;;;;;2056285;28;20037;-75
2021/11/27 03:03:38;;;;;;;48.20;24.40;;;1.00;99.90;;;;;;2048259;28;20113;-77
2021/11/27 03:04:38;;;;;;;48.53;25.08;;;1.00;99.90;;;;;;2048643;28;20034;-77
2021/11/27 03:05:39;;;;;;;46.55;24.50;;;1.00;99.90;;;;;;2056188;28;20034;-77
2021/11/27 03:06:42;;;;;;;43.63;23.60;;;1.00;99.90;;;;;;2048067;28;20425;-77
2021/11/27 03:07:43;;;;;;;46.20;24.75;;;0.90;99.90;;;;;;2048432;28;20613;-76
2021/11/27 03:08:44;;;;;;;52.35;25.63;;;0.90;99.90;;;;;;2048360;28;20034;-76
2021/11/27 03:09:45;;;;;;;49.33;25.95;;;0.90;99.90;;;;;;2056158;28;20789;-76
2021/11/27 03:10:47;;;;;;;46.97;25.33;;;1.00;99.90;;;;;;2056139;28;20035;-77
2021/11/27 03:11:53;;;;;;;47.80;25.48;;;1.00;99.90;;;;;;2055396;28;20031;-77
2021/11/27 03:12:54;;;;;;;48.50;25.45;;;1.00;99.90;;;;;;2048315;28;20062;-74
2021/11/27 03:13:55;;;;;;;49.90;24.88;;;1.00;99.90;;;;;;2040010;28;20038;-75
2021/11/27 03:14:56;;;;;;;45.42;24.30;;;1.00;99.90;;;;;;2048074;28;20133;-75
2021/11/27 03:15:56;;;;;;;47.78;25.67;;;1.00;99.90;;;;;;2047929;28;20024;-74
2021/11/27 03:16:57;;;;;;;47.83;25.15;;;1.00;99.90;;;;;;2047952;28;20071;-74
2021/11/27 03:17:58;;;;;;;48.03;25.27;;;0.90;99.90;;;;;;2055985;28;20102;-75
2021/11/27 03:19:00;;;;;;;47.70;25.02;;;1.00;99.90;;;;;;2055805;28;20034;-74
2021/11/27 03:20:01;;;;;;;47.97;25.25;;;1.00;99.90;;;;;;2048145;28;20039;-75
2021/11/27 03:21:04;;;;;;;49.08;25.38;;;1.00;99.90;;;;;;2056106;28;20038;-74
2021/11/27 03:22:06;;;;;;;50.25;25.98;;;1.00;99.90;;;;;;2046946;28;20038;-74
2021/11/27 03:23:09;;;;;;;52.67;26.42;;;1.00;99.90;;;;;;2048350;28;20035;-74
2021/11/27 03:24:11;;;;;;;52.72;26.65;;;1.00;99.90;;;;;;2055952;28;20061;-75
2021/11/27 03:25:12;;;;;;;47.67;24.75;;;1.00;99.90;;;;;;2056007;28;20473;-74
2021/11/27 03:26:16;;;;;;;51.42;25.98;;;1.00;99.90;;;;;;2055957;28;20133;-72
2021/11/27 03:27:17;;;;;;;52.45;27.48;;;1.00;99.90;;;;;;2048103;28;20058;-73
2021/11/27 03:28:18;;;;;;;48.35;26.38;;;1.00;99.90;;;;;;2048276;28;20421;-73
2021/11/27 03:29:20;;;;;;;51.88;26.52;;;1.00;99.90;;;;;;2057373;28;20054;-72
2021/11/27 03:30:21;;;;;;;50.65;26.50;;;1.00;99.90;;;;;;2055720;28;20034;-73
2021/11/27 03:31:27;;;;;;;50.70;26.30;;;1.00;99.90;;;;;;2049022;28;20027;-74
2021/11/27 03:32:29;;;;;;;66.60;31.60;;;1.00;99.90;;;;;;2048625;29;20027;-72
2021/11/27 03:33:42;;;;;;;55.97;27.45;;;1.00;99.90;;;;;;2045815;28;20122;-72
2021/11/27 03:34:44;;;;;;;49.10;26.05;;;1.10;99.90;;;;;;2040048;29;20071;-75
2021/11/27 03:35:46;;;;;;;50.60;26.73;;;1.10;99.90;;;;;;2040678;28;20027;-73
2021/11/27 03:36:47;;;;;;;44.95;24.08;;;1.10;99.90;;;;;;2040068;29;20028;-72
2021/11/27 03:37:49;;;;;;;48.03;25.02;;;1.10;99.90;;;;;;2047817;28;20078;-72
2021/11/27 03:38:55;;;;;;;48.38;24.23;;;1.00;99.90;;;;;;2048789;28;20498;-72
2021/11/27 03:39:56;;;;;;;48.67;25.20;;;1.00;99.90;;;;;;2055864;28;20038;-74
2021/11/27 03:40:58;;;;;;;48.67;25.65;;;1.00;99.90;;;;;;2055880;28;20401;-72
2021/11/27 03:42:04;;;;;;;43.97;23.90;;;1.00;99.90;;;;;;2047294;28;20039;-73
2021/11/27 03:43:05;;;;;;;49.45;25.73;;;1.00;99.90;;;;;;2040783;28;20063;-73
2021/11/27 03:44:06;;;;;;;49.60;25.92;;;1.00;99.90;;;;;;2039571;29;20032;-74
2021/11/27 03:45:11;;;;;;;42.50;23.77;;;1.00;99.90;;;;;;2039525;29;20505;-74
2021/11/27 03:46:14;;;;;;;47.72;24.30;;;1.00;99.90;;;;;;2056391;28;20529;-74
2021/11/27 03:47:15;;;;;;;48.60;24.92;;;1.00;99.90;;;;;;2055673;28;20034;-74
2021/11/27 03:48:24;;;;;;;48.60;24.60;;;1.00;99.90;;;;;;2055851;28;20513;-74
2021/11/27 03:49:43;;;;;;;50.10;24.98;;;1.00;99.90;;;;;;2055798;28;20027;-74
2021/11/27 03:50:51;;;;;;;52.40;26.13;;;1.00;99.90;;;;;;2056067;28;20023;-74
2021/11/27 03:51:52;;;;;;;47.30;25.13;;;1.00;99.90;;;;;;2055198;28;20090;-74
2021/11/27 03:52:53;;;;;;;46.75;24.58;;;1.00;99.90;;;;;;2056211;28;20410;-74
2021/11/27 03:53:55;;;;;;;47.95;25.27;;;1.00;99.90;;;;;;2056079;28;20054;-74
2021/11/27 03:54:55;;;;;;;46.58;24.48;;;0.90;99.90;;;;;;2056031;28;20031;-74
2021/11/27 03:55:58;;;;;;;48.88;25.25;;;0.90;99.90;;;;;;2048109;28;20038;-74
2021/11/27 03:56:59;;;;;;;50.00;25.60;;;0.90;99.90;;;;;;2048416;28;20031;-74
2021/11/27 03:58:01;;;;;;;47.78;24.65;;;0.90;99.90;;;;;;2048057;28;20059;-73
2021/11/27 03:59:05;;;;;;;48.58;25.25;;;0.90;99.90;;;;;;2040292;29;20036;-73
2021/11/27 04:00:08;;;;;;;45.70;24.50;;;0.90;99.90;;;;;;2041042;28;20043;-74
2021/11/27 04:01:18;;;;;;;47.88;24.13;;;0.80;99.90;;;;;;2056246;28;20039;-74
2021/11/27 04:02:19;;;;;;;46.08;23.73;;;0.90;99.90;;;;;;2055328;28;20569;-74
2021/11/27 04:03:22;;;;;;;48.33;24.33;;;0.80;99.90;;;;;;2047906;28;20671;-74
2021/11/27 04:04:23;;;;;;;48.63;24.35;;;0.80;99.90;;;;;;2040283;28;20491;-74
2021/11/27 04:05:25;;;;;;;51.88;26.58;;;0.80;99.90;;;;;;2040493;28;20040;-74
2021/11/27 04:06:27;;;;;;;50.78;25.50;;;0.80;99.90;;;;;;2048190;28;20579;-74
2021/11/27 04:07:30;;;;;;;48.28;24.70;;;0.80;99.90;;;;;;2041004;29;20066;-74
2021/11/27 04:08:31;;;;;;;47.90;25.08;;;0.70;99.90;;;;;;2041247;29;20123;-74
2021/11/27 04:09:33;;;;;;;49.95;25.92;;;0.70;99.90;;;;;;2048670;28;20677;-74
2021/11/27 04:10:34;;;;;;;46.88;24.85;;;0.70;99.90;;;;;;2048250;29;20039;-73
2021/11/27 04:11:37;;;;;;;47.72;24.55;;;0.70;99.90;;;;;;2055221;28;20030;-74
2021/11/27 04:12:41;;;;;;;44.92;23.63;;;0.70;99.90;;;;;;2055968;28;20783;-73
2021/11/27 04:13:42;;;;;;;46.50;23.77;;;0.70;99.90;;;;;;2056031;28;20033;-72
2021/11/27 04:14:44;;;;;;;46.63;24.40;;;0.60;99.90;;;;;;2048414;28;20461;-72
2021/11/27 04:15:45;;;;;;;48.72;25.02;;;0.60;99.90;;;;;;2048441;29;20027;-72
2021/11/27 04:16:47;;;;;;;47.33;25.45;;;0.60;99.90;;;;;;2056082;28;20037;-72
2021/11/27 04:17:49;;;;;;;52.60;26.98;;;0.60;99.90;;;;;;2039995;29;20038;-72
2021/11/27 04:18:50;;;;;;;59.72;28.85;;;0.60;99.90;;;;;;2047808;28;20146;-73
2021/11/27 04:19:51;;;;;;;55.38;27.83;;;0.60;99.90;;;;;;2055556;28;20031;-75
2021/11/27 04:20:53;;;;;;;53.13;26.25;;;0.60;99.90;;;;;;2055580;28;20038;-75
2021/11/27 04:21:53;;;;;;;56.40;27.55;;;0.60;99.90;;;;;;2054884;28;20038;-73
2021/11/27 04:22:54;;;;;;;56.53;28.00;;;0.60;99.90;;;;;;2055457;28;20045;-74
2021/11/27 04:23:56;;;;;;;55.28;27.73;;;0.70;99.90;;;;;;2047365;28;20486;-75
2021/11/27 04:24:57;;;;;;;55.10;27.58;;;0.70;99.90;;;;;;2047269;29;20031;-75
2021/11/27 04:25:58;;;;;;;57.70;27.70;;;0.70;99.90;;;;;;2047629;28;20129;-74
2021/11/27 04:26:58;;;;;;;58.15;27.67;;;0.70;99.90;;;;;;2055551;28;20058;-74
2021/11/27 04:28:00;;;;;;;55.10;28.02;;;0.70;99.90;;;;;;2047620;28;20403;-71
2021/11/27 04:29:01;;;;;;;57.03;27.60;;;0.70;99.90;;;;;;2039866;28;20032;-72
2021/11/27 04:30:06;;;;;;;54.35;27.63;;;0.60;99.90;;;;;;2039945;28;20038;-71
2021/11/27 04:31:07;;;;;;;57.30;27.95;;;0.60;99.90;;;;;;2055700;28;20023;-72
2021/11/27 04:32:08;;;;;;;53.17;26.45;;;0.70;99.90;;;;;;2047057;28;20024;-72
2021/11/27 04:33:11;;;;;;;51.38;26.40;;;0.60;99.90;;;;;;2047720;28;20481;-72
2021/11/27 04:34:30;;;;;;;51.50;26.08;;;0.60;99.90;;;;;;2050121;28;20042;-72
2021/11/27 04:35:32;;;;;;;50.28;25.17;;;0.50;99.90;;;;;;2047783;28;20525;-71
2021/11/27 04:36:36;;;;;;;48.88;25.13;;;0.50;99.90;;;;;;2048498;28;20113;-72
2021/11/27 04:37:38;;;;;;;49.83;25.65;;;0.50;99.90;;;;;;2047785;28;20031;-71
2021/11/27 04:38:38;;;;;;;52.80;25.33;;;0.40;99.90;;;;;;2055599;28;20421;-71
2021/11/27 04:39:40;;;;;;;47.15;24.33;;;0.40;99.90;;;;;;2047650;28;20024;-71
2021/11/27 04:40:42;;;;;;;51.08;25.75;;;0.40;99.90;;;;;;2048066;28;20047;-71
2021/11/27 04:41:45;;;;;;;49.45;24.98;;;0.30;99.90;;;;;;2055088;28;20077;-73
2021/11/27 04:42:46;;;;;;;51.08;26.20;;;0.30;99.90;;;;;;2047790;29;20049;-74
2021/11/27 04:43:48;;;;;;;48.90;25.02;;;0.30;99.90;;;;;;2032172;29;20111;-73
2021/11/27 04:44:49;;;;;;;49.45;24.52;;;0.30;99.90;;;;;;2032207;29;20028;-72
2021/11/27 04:45:50;;;;;;;49.38;24.65;;;0.30;99.90;;;;;;2039805;29;20055;-73
2021/11/27 04:46:53;;;;;;;49.40;25.80;;;0.30;99.90;;;;;;2047972;28;20067;-73
2021/11/27 04:47:54;;;;;;;52.05;25.95;;;0.20;99.90;;;;;;2047567;28;20031;-73
2021/11/27 04:48:55;;;;;;;49.25;24.73;;;0.20;99.90;;;;;;2055531;28;20027;-72
2021/11/27 04:49:56;;;;;;;49.35;24.80;;;0.20;99.90;;;;;;2047653;28;20685;-72
2021/11/27 04:50:57;;;;;;;51.53;25.60;;;0.20;99.90;;;;;;2047595;28;20142;-71
2021/11/27 04:51:58;;;;;;;49.38;25.00;;;0.20;99.90;;;;;;2054859;28;20027;-73
2021/11/27 04:53:00;;;;;;;53.20;27.05;;;0.20;99.90;;;;;;2047562;29;20070;-72
2021/11/27 04:54:00;;;;;;;52.30;26.05;;;0.20;99.90;;;;;;2047758;28;20058;-72
2021/11/27 04:55:02;;;;;;;52.65;26.60;;;0.20;99.90;;;;;;2055723;28;20450;-73
2021/11/27 04:56:05;;;;;;;55.97;28.45;;;0.20;99.90;;;;;;2056587;28;20055;-72
2021/11/27 04:57:06;;;;;;;56.60;28.20;;;0.20;99.90;;;;;;2057210;28;20122;-73
2021/11/27 04:58:07;;;;;;;56.65;27.55;;;0.20;99.90;;;;;;2057238;28;20026;-72
2021/11/27 04:59:08;;;;;;;55.55;26.90;;;0.20;99.90;;;;;;2057168;28;20031;-72
2021/11/27 05:00:17;;;;;;;51.38;26.38;;;0.20;99.90;;;;;;2049136;28;20031;-72
2021/11/27 05:01:22;;;;;;;56.25;27.45;;;0.20;99.90;;;;;;2050103;28;20035;-72
2021/11/27 05:02:29;;;;;;;57.97;28.52;;;0.20;99.90;;;;;;2050395;28;20577;-72
2021/11/27 05:03:29;;;;;;;62.00;29.40;;;0.20;99.90;;;;;;2049152;28;20121;-73
2021/11/27 05:04:32;;;;;;;59.20;29.75;;;0.30;99.90;;;;;;2049269;28;20457;-73
2021/11/27 05:05:35;;;;;;;59.42;29.02;;;0.30;99.90;;;;;;2049449;28;20139;-74
2021/11/27 05:06:36;;;;;;;57.20;28.38;;;0.30;99.90;;;;;;2049188;28;20441;-74
2021/11/27 05:07:37;;;;;;;52.72;26.92;;;0.30;99.90;;;;;;2048914;28;20031;-74
2021/11/27 05:08:38;;;;;;;54.60;27.25;;;0.30;99.90;;;;;;2048993;28;20053;-74
2021/11/27 05:09:40;;;;;;;55.42;27.35;;;0.30;99.90;;;;;;2056955;28;20058;-74
2021/11/27 05:10:42;;;;;;;53.50;26.77;;;0.30;99.90;;;;;;2049068;28;20062;-74
2021/11/27 05:11:43;;;;;;;59.58;29.73;;;0.30;99.90;;;;;;2056159;28;20027;-75
2021/11/27 05:12:47;;;;;;;59.42;27.77;;;0.30;99.90;;;;;;2056885;28;20034;-75
2021/11/27 05:13:48;;;;;;;55.80;27.85;;;0.30;99.90;;;;;;2049138;28;20118;-76
2021/11/27 05:14:48;;;;;;;53.42;26.58;;;0.30;99.90;;;;;;2057154;28;20023;-76
2021/11/27 05:15:49;;;;;;;53.83;25.52;;;0.30;99.90;;;;;;2057818;28;20031;-75
2021/11/27 05:16:52;;;;;;;52.72;26.83;;;0.30;99.90;;;;;;2049218;28;20034;-76
2021/11/27 05:17:53;;;;;;;54.20;26.90;;;0.30;99.90;;;;;;2049465;28;20035;-75
2021/11/27 05:19:14;;;;;;;55.95;27.17;;;0.20;99.90;;;;;;2057503;28;20046;-75
2021/11/27 05:20:25;;;;;;;66.82;31.60;;;0.20;99.90;;;;;;2057216;28;20039;-76
2021/11/27 05:21:26;;;;;;;66.95;32.72;;;0.30;99.90;;;;;;2056632;28;20038;-75
2021/11/27 05:22:27;;;;;;;69.95;35.35;;;0.30;99.90;;;;;;2056931;28;20035;-75
2021/11/27 05:23:28;;;;;;;69.63;34.75;;;0.30;99.90;;;;;;2048939;28;20109;-74
2021/11/27 05:24:30;;;;;;;70.70;34.67;;;0.30;99.90;;;;;;2049082;28;20042;-73
2021/11/27 05:25:44;;;;;;;63.95;31.50;;;0.30;99.90;;;;;;2050683;28;20031;-74